»·PEaware :: N373EB KSAC-KWHP

N373EB :: KSAC-KWHP

FLIGHT INFORMATION

Flight Status: Arrived
Operator: Privately registered:
United States
More flights under this callsign
Pilot: Peder R. (40111)
Aircraft: BEECH AIRCRAFT DEBONAIR BONANZA
(BE33)
More flights by this aircraft type
Origin: KSAC Sacramento Executive
United States
Destination: KWHP Whiteman
United States
More flights between these airports :: More routes between these airports
Route: HNNRY T261 MOVDD T263 PXN V107 FIM
File this flight plan on PilotEdge
Remarks: Getting used to new VR headset. Please go easy on me. Thanks. P
Altitude:
(Current/Filed)
13,000ft
Speed:
(Current/Filed)
155kts
Departed: 30-Nov-23 11:18 AM
Arrived: 30-Nov-23 01:34 PM
Distance/Time
Traveled:
295nm/2:16
Distance/Time
To Go:
Arrived

Flight Plot

Page will automatically refresh every two minutes.

Flight plan parsing failed; only flown route is shown


Map Options




Map Legend


Flown Route
Filed Route
Departure Airport
Arrival Airport
Navaid (VOR, NDB)
Fix

Horizontal Profiles

Position Reports

Time Latitude Longitude Heading Altitude Ground
Speed
30-Nov-23 10:54 38.512562 -121.498209 213 20ft 0kts
30-Nov-23 10:55 38.512562 -121.498209 213 20ft 0kts
30-Nov-23 10:55 38.512562 -121.498209 213 20ft 0kts
30-Nov-23 10:56 38.512562 -121.498209 213 20ft 0kts
30-Nov-23 10:58 38.512562 -121.498209 213 20ft 0kts
30-Nov-23 10:58 38.512562 -121.498209 213 20ft 0kts
30-Nov-23 10:59 38.512562 -121.498209 213 20ft 0kts
30-Nov-23 11:00 38.512562 -121.498209 213 20ft 0kts
30-Nov-23 11:01 38.512562 -121.498209 213 20ft 0kts
30-Nov-23 11:03 38.512562 -121.498209 213 20ft 0kts
30-Nov-23 11:03 38.512562 -121.498209 213 20ft 0kts
30-Nov-23 11:04 38.512562 -121.498209 213 20ft 0kts
30-Nov-23 11:05 38.512562 -121.498209 213 20ft 0kts
30-Nov-23 11:06 38.512562 -121.498209 213 20ft 0kts
30-Nov-23 11:07 38.512259 -121.497880 121 20ft 7kts
30-Nov-23 11:08 38.512625 -121.496977 21 20ft 8kts
30-Nov-23 11:09 38.514092 -121.495021 33 20ft 10kts
30-Nov-23 11:10 38.517124 -121.492503 32 22ft 11kts
30-Nov-23 11:11 38.519437 -121.490521 164 23ft 4kts
30-Nov-23 11:12 38.519410 -121.490513 168 23ft 0kts
30-Nov-23 11:13 38.519410 -121.490513 168 23ft 0kts
30-Nov-23 11:14 38.519410 -121.490513 168 23ft 0kts
30-Nov-23 11:15 38.519150 -121.490310 110 23ft 0kts
30-Nov-23 11:16 38.519053 -121.489610 115 23ft 12kts
30-Nov-23 11:17 38.504319 -121.501588 210 503ft 93kts
30-Nov-23 11:18 38.490572 -121.480270 95 1537ft 95kts
30-Nov-23 11:19 38.482997 -121.446304 107 2448ft 95kts
30-Nov-23 11:20 38.476754 -121.412038 107 3377ft 98kts
30-Nov-23 11:21 38.460179 -121.386900 195 4211ft 107kts
30-Nov-23 11:22 38.432609 -121.405146 204 5056ft 114kts
30-Nov-23 11:23 38.403055 -121.424126 215 5906ft 118kts
30-Nov-23 11:24 38.374666 -121.445752 205 6697ft 119kts
30-Nov-23 11:25 38.345016 -121.465931 204 7415ft 121kts
30-Nov-23 11:26 38.315282 -121.487409 205 8063ft 123kts
30-Nov-23 11:27 38.285191 -121.509024 201 8666ft 124kts
30-Nov-23 11:28 38.253723 -121.528985 206 9238ft 126kts
30-Nov-23 11:29 38.222562 -121.550214 205 9766ft 127kts
30-Nov-23 11:30 38.190716 -121.570982 197 10267ft 128kts
30-Nov-23 11:31 38.156044 -121.574621 155 10743ft 124kts
30-Nov-23 11:32 38.122770 -121.564054 161 11230ft 123kts
30-Nov-23 11:33 38.089045 -121.556674 164 11669ft 123kts
30-Nov-23 11:34 38.055083 -121.548023 163 12075ft 124kts
30-Nov-23 11:35 38.020638 -121.539761 163 12457ft 125kts
30-Nov-23 11:36 37.986392 -121.530298 162 12815ft 126kts
30-Nov-23 11:37 37.950910 -121.522018 162 13074ft 133kts
30-Nov-23 11:38 37.911257 -121.511061 166 13067ft 150kts
30-Nov-23 11:39 37.868658 -121.499499 163 13037ft 155kts
30-Nov-23 11:40 37.825498 -121.488580 164 12978ft 157kts
30-Nov-23 11:41 37.782723 -121.477134 163 13020ft 152kts
30-Nov-23 11:42 37.739991 -121.466221 165 12991ft 155kts
30-Nov-23 11:43 37.697007 -121.457240 165 13011ft 154kts
30-Nov-23 11:44 37.655422 -121.443892 151 13012ft 151kts
30-Nov-23 11:45 37.619027 -121.416530 145 13014ft 151kts
30-Nov-23 11:46 37.582043 -121.390657 148 13025ft 151kts
30-Nov-23 11:47 37.545147 -121.364558 150 13033ft 151kts
30-Nov-23 11:48 37.508552 -121.337572 147 13024ft 151kts
30-Nov-23 11:49 37.470969 -121.311485 148 12989ft 154kts
30-Nov-23 11:50 37.433333 -121.284475 148 12989ft 154kts
30-Nov-23 11:51 37.396463 -121.256186 146 13007ft 153kts
30-Nov-23 11:52 37.358704 -121.230494 146 13013ft 153kts
30-Nov-23 11:53 37.321920 -121.203272 147 13020ft 153kts
30-Nov-23 11:54 37.284736 -121.176788 144 13020ft 153kts
30-Nov-23 11:55 37.247747 -121.149180 147 13018ft 154kts
30-Nov-23 11:56 37.209829 -121.123156 147 13018ft 154kts
30-Nov-23 11:57 37.172077 -121.097069 148 13019ft 155kts
30-Nov-23 11:58 37.133988 -121.070646 145 13020ft 155kts
30-Nov-23 11:59 37.095672 -121.044635 149 13022ft 156kts
30-Nov-23 12:00 37.057686 -121.018514 147 13039ft 154kts
30-Nov-23 12:01 37.019376 -120.993523 146 13045ft 153kts
30-Nov-23 12:02 36.982985 -120.965942 145 13072ft 151kts
30-Nov-23 12:03 36.946009 -120.940503 148 13035ft 152kts
30-Nov-23 12:04 36.909485 -120.913404 148 13003ft 151kts
30-Nov-23 12:05 36.872628 -120.887822 148 12998ft 150kts
30-Nov-23 12:06 36.836228 -120.862039 149 12988ft 150kts
30-Nov-23 12:07 36.798997 -120.836894 149 12994ft 149kts
30-Nov-23 12:08 36.761770 -120.810839 148 13003ft 149kts
30-Nov-23 12:09 36.724661 -120.785330 148 13005ft 149kts
30-Nov-23 12:10 36.687952 -120.758533 148 13012ft 149kts
30-Nov-23 12:11 36.650950 -120.732263 145 13019ft 148kts
30-Nov-23 12:12 36.614676 -120.704433 146 13026ft 148kts
30-Nov-23 12:13 36.578683 -120.676539 142 13027ft 148kts
30-Nov-23 12:14 36.542838 -120.649269 148 13023ft 149kts
30-Nov-23 12:15 36.507081 -120.622108 147 13024ft 149kts
30-Nov-23 12:16 36.470932 -120.594815 146 13022ft 149kts
30-Nov-23 12:17 36.434762 -120.567653 143 13020ft 148kts
30-Nov-23 12:18 36.398583 -120.540612 144 13017ft 149kts
30-Nov-23 12:19 36.363078 -120.512877 146 13027ft 148kts
30-Nov-23 12:20 36.326708 -120.485741 143 13024ft 148kts
30-Nov-23 12:21 36.291005 -120.458330 148 13024ft 149kts
30-Nov-23 12:22 36.254991 -120.431880 146 13032ft 148kts
30-Nov-23 12:23 36.219013 -120.405181 147 13035ft 148kts
30-Nov-23 12:24 36.182356 -120.378633 144 13039ft 148kts
30-Nov-23 12:25 36.147934 -120.352092 146 13040ft 148kts
30-Nov-23 12:26 36.112455 -120.325175 146 13045ft 148kts
30-Nov-23 12:27 36.077096 -120.298257 147 13047ft 149kts
30-Nov-23 12:28 36.040873 -120.271173 147 13056ft 149kts
30-Nov-23 12:29 36.004598 -120.243643 147 13048ft 150kts
30-Nov-23 12:30 35.968340 -120.217226 148 13044ft 150kts
30-Nov-23 12:31 35.932378 -120.191140 146 13045ft 149kts
30-Nov-23 12:32 35.896111 -120.165243 151 13034ft 150kts
30-Nov-23 12:33 35.860402 -120.138456 145 13033ft 149kts
30-Nov-23 12:34 35.824337 -120.112047 149 13028ft 150kts
30-Nov-23 12:35 35.788752 -120.084902 146 13022ft 150kts
30-Nov-23 12:36 35.753087 -120.058158 146 13026ft 150kts
30-Nov-23 12:37 35.716925 -120.032359 145 13023ft 150kts
30-Nov-23 12:38 35.681498 -120.005149 146 13041ft 149kts
30-Nov-23 12:39 35.646487 -119.977900 141 13046ft 149kts
30-Nov-23 12:40 35.613360 -119.947356 141 13057ft 148kts
30-Nov-23 12:41 35.579414 -119.917997 146 13039ft 151kts
30-Nov-23 12:42 35.544795 -119.889358 144 13056ft 149kts
30-Nov-23 12:43 35.510094 -119.860538 141 13050ft 149kts
30-Nov-23 12:44 35.476281 -119.830482 142 13054ft 149kts
30-Nov-23 12:45 35.440821 -119.800829 145 13044ft 150kts
30-Nov-23 12:46 35.405594 -119.770740 142 13045ft 149kts
30-Nov-23 12:47 35.370664 -119.739491 142 13037ft 150kts
30-Nov-23 12:48 35.335495 -119.708976 145 13025ft 150kts
30-Nov-23 12:49 35.299975 -119.678612 144 12998ft 151kts
30-Nov-23 12:50 35.264321 -119.647873 142 12970ft 151kts
30-Nov-23 12:51 35.228663 -119.617697 142 12966ft 150kts
30-Nov-23 12:52 35.194053 -119.587820 145 12994ft 148kts
30-Nov-23 12:53 35.159551 -119.558247 143 12998ft 148kts
30-Nov-23 12:54 35.125349 -119.529115 147 13000ft 149kts
30-Nov-23 12:55 35.090750 -119.500624 142 13021ft 148kts
30-Nov-23 12:56 35.056203 -119.471061 143 13017ft 149kts
30-Nov-23 12:57 35.021454 -119.442021 143 13034ft 148kts
30-Nov-23 12:58 34.986444 -119.413655 140 13034ft 148kts
30-Nov-23 12:59 34.951904 -119.383738 140 13009ft 148kts
30-Nov-23 13:00 34.916782 -119.355286 142 12988ft 149kts
30-Nov-23 13:01 34.881966 -119.325594 140 12993ft 148kts
30-Nov-23 13:02 34.847620 -119.295632 136 12999ft 147kts
30-Nov-23 13:03 34.814178 -119.265093 138 13008ft 148kts
30-Nov-23 13:04 34.780031 -119.235984 138 13030ft 147kts
30-Nov-23 13:05 34.746130 -119.206958 139 13050ft 147kts
30-Nov-23 13:06 34.711772 -119.178708 139 13056ft 148kts
30-Nov-23 13:07 34.678381 -119.149116 140 13055ft 147kts
30-Nov-23 13:08 34.643601 -119.120804 139 12450ft 149kts
30-Nov-23 13:09 34.609489 -119.092399 140 11922ft 147kts
30-Nov-23 13:10 34.576124 -119.063985 139 11380ft 144kts
30-Nov-23 13:11 34.542728 -119.036672 140 10817ft 142kts
30-Nov-23 13:12 34.509502 -119.010499 141 10269ft 139kts
30-Nov-23 13:13 34.477879 -118.982625 141 9707ft 137kts
30-Nov-23 13:14 34.444347 -118.953999 140 8611ft 155kts
30-Nov-23 13:15 34.407979 -118.922659 144 7379ft 157kts
30-Nov-23 13:16 34.371450 -118.891686 140 6130ft 157kts
30-Nov-23 13:17 34.342271 -118.860968 132 5663ft 134kts
30-Nov-23 13:18 34.315604 -118.830693 135 5096ft 129kts
30-Nov-23 13:19 34.289593 -118.799460 135 4498ft 129kts
30-Nov-23 13:20 34.265853 -118.771492 137 4465ft 100kts
30-Nov-23 13:21 34.245341 -118.749231 142 4463ft 97kts
30-Nov-23 13:22 34.226441 -118.724354 127 4405ft 102kts
30-Nov-23 13:23 34.225172 -118.686704 100 4142ft 108kts
30-Nov-23 13:24 34.223519 -118.648023 94 3937ft 108kts
30-Nov-23 13:26 34.222703 -118.611604 83 3946ft 106kts
30-Nov-23 13:27 34.223102 -118.576012 84 3792ft 104kts
30-Nov-23 13:28 34.223381 -118.541587 86 3532ft 101kts
30-Nov-23 13:29 34.222315 -118.507397 96 3260ft 101kts
30-Nov-23 13:30 34.230663 -118.475677 57 2751ft 100kts
30-Nov-23 13:31 34.244466 -118.444978 47 2294ft 100kts
30-Nov-23 13:32 34.268278 -118.448617 35 2042ft 87kts
30-Nov-23 13:33 34.271083 -118.425893 136 1387ft 83kts
30-Nov-23 13:34 34.257919 -118.411755 112 983ft 13kts
30-Nov-23 13:35 34.258145 -118.411567 321 984ft 4kts
30-Nov-23 13:36 34.259807 -118.412582 36 993ft 6kts

Navigation Log

Ident Type
Flight plan parsing failed, navigation log unavailable